Lady Mary — WCY4834 — position and weather

sailwx.info

Track history (hours):
 
Tides and Currents Weather Stations Pressure Air Temp Water Temp Dewpoint Dewpoint Depression Visibility Wind Speed Wind Dir Waves Ship Positions

Lady Mary

Owner: BLACKMAN, JOHN H, SEATTLE, WA. More information available from US FCC via Universal Licensing System and Coast Guard Vessel Documentation Center.

Last reported at 2016-May-25 12:28 UTC. Time now 2016-May-25 13:03 UTC.
Position N 47°40' W 122°13'.

Length 26 m.

Type: Passenger vessel. MMSI: 367013060.

Date/timePositionNaut miles runAvg speedWind from/ knotsBaromVisibWave heightAir tempDewpointWater temp
2016-May-25 12:28N 47°40' W 122°13'0 0.0
2016-May-25 11:31N 47°40' W 122°13'0 0.0
2016-May-25 10:29N 47°40' W 122°13'0 0.0
2016-May-25 09:33N 47°40' W 122°13'0 0.0
2016-May-25 08:30N 47°40' W 122°13'0 0.0
2016-May-25 07:31N 47°40' W 122°13'0 0.0
2016-May-25 06:32N 47°40' W 122°13'0 0.0
2016-May-25 05:29N 47°40' W 122°13'0 0.0
2016-May-25 04:33N 47°40' W 122°13'0 0.0
2016-May-25 03:28N 47°40' W 122°13'0 0.0
2016-May-25 02:28N 47°40' W 122°13'0 0.0
2016-May-25 01:32N 47°40' W 122°13'0 0.0
2016-May-25 00:30N 47°40' W 122°13'0 0.0
2016-May-24 23:30N 47°40' W 122°13'0 0.0
2016-May-24 22:28N 47°40' W 122°13'0 0.0
2016-May-24 21:32N 47°40' W 122°13'0 0.0
2016-May-24 20:26N 47°40' W 122°13'0 0.0
2016-May-24 19:33N 47°40' W 122°13'0 0.0
2016-May-24 18:28N 47°40' W 122°13'0 0.0
2016-May-24 17:31N 47°40' W 122°13'0 0.0
2016-May-24 16:29N 47°40' W 122°13'0 0.0
2016-May-24 15:27N 47°40' W 122°13'0 0.0
2016-May-24 14:33N 47°40' W 122°13'0 0.0
2016-May-24 01:33N 47°40' W 122°13'0 0.0
2016-May-24 00:31N 47°40' W 122°13'0 0.0
2016-May-23 23:31N 47°40' W 122°13'0 0.0
2016-May-23 22:32N 47°40' W 122°13'0 0.0
2016-May-23 21:33N 47°40' W 122°13'0 0.0
2016-May-23 20:33N 47°40' W 122°13'4 3.9
2016-May-23 19:33N 47°37' W 122°15'4 3.8
2016-May-23 18:31N 47°40' W 122°13'0 0.0
2016-May-23 17:26N 47°40' W 122°13'0 0.0
2016-May-23 16:32N 47°40' W 122°13'0 0.0
2016-May-23 15:33N 47°40' W 122°13'0 0.0
2016-May-23 14:31N 47°40' W 122°13'0 0.0
2016-May-23 13:19N 47°40' W 122°13'0 0.0
2016-May-23 12:32N 47°40' W 122°13'0 0.0
2016-May-23 11:33N 47°40' W 122°13'0 0.0
2016-May-23 10:33N 47°40' W 122°13'0 0.0
2016-May-23 09:28N 47°40' W 122°13'0 0.0
2016-May-23 08:32N 47°40' W 122°13'0 0.0
2016-May-23 07:32N 47°40' W 122°13'0 0.0
2016-May-23 06:33N 47°40' W 122°13'0 0.0
2016-May-23 05:28N 47°40' W 122°13'0 0.0
2016-May-23 04:28N 47°40' W 122°13'0 0.0
2016-May-23 03:32N 47°40' W 122°13'0 0.0
2016-May-23 02:30N 47°40' W 122°13'0 0.0
2016-May-23 01:33N 47°40' W 122°13'0 0.0
2016-May-23 00:31N 47°40' W 122°13'0 0.0
2016-May-22 23:32N 47°40' W 122°13'0 0.0
2016-May-22 22:32N 47°40' W 122°13'4 4.0
2016-May-22 21:32N 47°36' W 122°14'4 3.9
2016-May-22 20:30N 47°40' W 122°13'4 3.5
2016-May-22 19:26N 47°37' W 122°13'4 4.1
2016-May-22 18:32N 47°40' W 122°13'0 0.0
2016-May-22 17:32N 47°40' W 122°13'0 0.0
2016-May-22 16:33N 47°40' W 122°13'0 0.0
2016-May-22 15:34N 47°40' W 122°13'0 0.0
2016-May-22 13:32N 47°40' W 122°13'0 0.0
2016-May-22 12:33N 47°40' W 122°13'0 0.0
2016-May-22 11:33N 47°40' W 122°13'0 0.0
2016-May-22 10:31N 47°40' W 122°13'0 0.0
2016-May-22 09:29N 47°40' W 122°13'0 0.0
2016-May-22 08:32N 47°40' W 122°13'0 0.0
2016-May-22 07:30N 47°40' W 122°13'0 0.0
2016-May-22 06:31N 47°40' W 122°13'0 0.0
2016-May-22 05:28N 47°40' W 122°13'0 0.0
2016-May-22 04:32N 47°40' W 122°13'0 0.0
2016-May-22 03:30N 47°40' W 122°13'0 0.0
2016-May-22 02:30N 47°40' W 122°13'0 0.0
2016-May-22 01:31N 47°40' W 122°13'0 0.0
2016-May-22 00:23N 47°40' W 122°13'0 0.0
2016-May-21 23:34N 47°40' W 122°13'0 0.0
2016-May-21 22:34N 47°40' W 122°13'4 4.2
2016-May-21 21:33N 47°36' W 122°14'4 4.2
2016-May-21 20:33N 47°40' W 122°13'3 3.2
2016-May-21 19:34N 47°38' W 122°15'3 3.2
2016-May-21 18:34N 47°40' W 122°13'0 0.0
2016-May-21 17:31N 47°40' W 122°13'0 0.0
2016-May-21 16:31N 47°40' W 122°13'0 0.0
2016-May-21 15:32N 47°40' W 122°13'0 0.0
2016-May-21 14:33N 47°40' W 122°13'0 0.0
2016-May-21 13:33N 47°40' W 122°13'0 0.0
2016-May-21 12:31N 47°40' W 122°13'0 0.0
2016-May-21 11:32N 47°40' W 122°13'0 0.0
2016-May-21 10:32N 47°40' W 122°13'0 0.0
2016-May-21 09:33N 47°40' W 122°13'0 0.0
2016-May-21 08:31N 47°40' W 122°13'0 0.0
2016-May-21 07:31N 47°40' W 122°13'0 0.0
2016-May-21 06:32N 47°40' W 122°13'0 0.0
2016-May-21 05:33N 47°40' W 122°13'0 0.0
2016-May-21 04:30N 47°40' W 122°13'0 0.0
2016-May-21 03:31N 47°40' W 122°13'0 0.0
2016-May-21 02:26N 47°40' W 122°13'0 0.0
2016-May-21 01:32N 47°40' W 122°13'0 0.0
2016-May-21 00:24N 47°40' W 122°13'0 0.0
2016-May-20 23:28N 47°40' W 122°13'0 0.0
2016-May-20 22:28N 47°40' W 122°13'0 0.0
2016-May-20 21:29N 47°40' W 122°13'0 0.0
2016-May-20 20:30N 47°40' W 122°13'4 4.0
2016-May-20 19:33N 47°37' W 122°15'4 3.6
2016-May-20 18:32N 47°40' W 122°13'0 0.0
2016-May-20 17:33N 47°40' W 122°13'0 0.0
2016-May-20 16:28N 47°40' W 122°13'0 0.0
2016-May-20 15:31N 47°40' W 122°13'0 0.0
2016-May-20 14:32N 47°40' W 122°13'0 0.0
2016-May-20 13:33N 47°40' W 122°13'0 0.0
2016-May-20 12:30N 47°40' W 122°13'0 0.0
2016-May-20 11:25N 47°40' W 122°13'0 0.0
2016-May-20 10:32N 47°40' W 122°13'0 0.0
2016-May-20 09:32N 47°40' W 122°13'0 0.0
2016-May-20 08:33N 47°40' W 122°13'0 0.0
2016-May-20 07:31N 47°40' W 122°13'0 0.0
2016-May-20 06:31N 47°40' W 122°13'0 0.0
2016-May-20 04:33N 47°40' W 122°13'0 0.0
2016-May-20 03:33N 47°40' W 122°13'0 0.0
2016-May-20 02:28N 47°40' W 122°13'3 3.8
2016-May-20 01:33N 47°39' W 122°17'5 4.7
2016-May-20 00:33N 47°40' W 122°24'4 4.2
2016-May-19 23:32N 47°36' W 122°20'0 0.0
2016-May-18 19:19N 47°36' W 122°20'0 0.0
2016-May-18 18:33N 47°36' W 122°20'0 0.0
2016-May-18 17:34N 47°36' W 122°20'0 0.0
2016-May-18 16:33N 47°36' W 122°20'0 0.0
2016-May-18 15:33N 47°36' W 122°20'0 0.0
2016-May-18 14:33N 47°36' W 122°20'0 0.0
2016-May-18 13:34N 47°36' W 122°20'0 0.0
2016-May-18 12:33N 47°36' W 122°20'0 0.0
2016-May-18 11:34N 47°36' W 122°20'0 0.0
2016-May-18 10:33N 47°36' W 122°20'0 0.0
2016-May-18 09:34N 47°36' W 122°20'0 0.0
2016-May-18 08:33N 47°36' W 122°20'0 0.0
2016-May-18 07:33N 47°36' W 122°20'0 0.0
2016-May-18 06:33N 47°36' W 122°20'0 0.0
2016-May-18 05:34N 47°36' W 122°20'0 0.0
2016-May-18 04:33N 47°36' W 122°20'0 0.0
2016-May-18 03:34N 47°36' W 122°20'0 0.0
2016-May-18 02:31N 47°36' W 122°20'0 0.0
2016-May-18 01:34N 47°36' W 122°20'0 0.0
2016-May-18 00:34N 47°36' W 122°20'0 0.0
2016-May-17 23:33N 47°36' W 122°20'0 0.0
2016-May-17 22:33N 47°36' W 122°20'0 0.0
2016-May-17 21:34N 47°36' W 122°20'0 0.0
2016-May-17 20:33N 47°36' W 122°20'0 0.0
2016-May-17 19:33N 47°36' W 122°20'0 0.0
2016-May-17 18:33N 47°36' W 122°20'0 0.0
2016-May-17 17:34N 47°36' W 122°20'0 0.0
2016-May-17 16:34N 47°36' W 122°20'0 0.0
2016-May-17 15:33N 47°36' W 122°20'0 0.0
2016-May-17 14:33N 47°36' W 122°20'0 0.0
2016-May-17 13:33N 47°36' W 122°20'0 0.0
2016-May-17 12:34N 47°36' W 122°20'0 0.0
2016-May-17 11:33N 47°36' W 122°20'0 0.0
2016-May-17 10:34N 47°36' W 122°20'0 0.0
2016-May-17 09:33N 47°36' W 122°20'0 0.0
2016-May-17 08:33N 47°36' W 122°20'0 0.0
2016-May-17 07:33N 47°36' W 122°20'0 0.0
2016-May-17 06:34N 47°36' W 122°20'0 0.0
2016-May-17 05:34N 47°36' W 122°20'0 0.0
2016-May-17 04:33N 47°36' W 122°20'0 0.0
2016-May-17 03:33N 47°36' W 122°20'0 0.0
2016-May-17 02:33N 47°36' W 122°20'0 0.0
2016-May-17 01:33N 47°36' W 122°20'0 0.0
2016-May-17 00:34N 47°36' W 122°20'0 0.0
2016-May-16 23:34N 47°36' W 122°20'0 0.0
2016-May-16 22:33N 47°36' W 122°20'0 0.0
2016-May-16 21:34N 47°36' W 122°20'0 0.0
2016-May-16 20:33N 47°36' W 122°20'0 0.0
2016-May-16 19:33N 47°36' W 122°20'0 0.0
2016-May-16 18:33N 47°36' W 122°20'0 0.0
2016-May-16 17:33N 47°36' W 122°20'0 0.0
2016-May-16 16:33N 47°36' W 122°20'0 0.0
2016-May-16 15:34N 47°36' W 122°20'0 0.0
2016-May-16 14:33N 47°36' W 122°20'0 0.0
2016-May-16 13:33N 47°36' W 122°20'0 0.0
2016-May-16 12:34N 47°36' W 122°20'0 0.0
2016-May-16 11:33N 47°36' W 122°20'0 0.0
2016-May-16 10:33N 47°36' W 122°20'0 0.0
2016-May-16 09:33N 47°36' W 122°20'0 0.0
2016-May-16 08:33N 47°36' W 122°20'0 0.0
2016-May-16 07:34N 47°36' W 122°20'0 0.0
2016-May-16 06:34N 47°36' W 122°20'0 0.0
2016-May-16 05:34N 47°36' W 122°20'0 0.0
2016-May-16 04:34N 47°36' W 122°20'0 0.0
2016-May-16 03:33N 47°36' W 122°20'0 0.0
2016-May-16 02:33N 47°36' W 122°20'0 0.0
2016-May-16 01:33N 47°36' W 122°20'0 0.0
2016-May-16 00:33N 47°36' W 122°20'0 0.0
2016-May-15 23:33N 47°36' W 122°20'0 0.0
2016-May-15 22:33N 47°36' W 122°20'0 0.0
2016-May-15 21:32N 47°36' W 122°20'0 0.0
2016-May-15 20:34N 47°36' W 122°20'0 0.0
2016-May-15 19:33N 47°36' W 122°20'0 0.0
2016-May-15 18:33N 47°36' W 122°20'0 0.0
2016-May-15 17:33N 47°36' W 122°20'0 0.0
2016-May-15 16:33N 47°36' W 122°20'0 0.0
2016-May-15 15:33N 47°36' W 122°20'0 0.0
2016-May-15 14:33N 47°36' W 122°20'0 0.0
2016-May-15 13:33N 47°36' W 122°20'0 0.0
2016-May-15 12:33N 47°36' W 122°20'  
Track history (hours):
 
Tides and Currents Weather Stations Pressure Air Temp Water Temp Dewpoint Dewpoint Depression Visibility Wind Speed Wind Dir Waves Ship Positions

Lady Mary

Owner: BLACKMAN, JOHN H, SEATTLE, WA. More information available from US FCC via Universal Licensing System and Coast Guard Vessel Documentation Center.

Last reported at 2016-May-25 12:28 UTC. Time now 2016-May-25 13:03 UTC.
Position N 47°40' W 122°13'.

Length 26 m.

Type: Passenger vessel. MMSI: 367013060.

Date/timePositionNaut miles runAvg speedWind from/ knotsBaromVisibWave heightAir tempDewpointWater temp
2016-May-25 12:28N 47°40' W 122°13'0 0.0
2016-May-25 11:31N 47°40' W 122°13'0 0.0
2016-May-25 10:29N 47°40' W 122°13'0 0.0
2016-May-25 09:33N 47°40' W 122°13'0 0.0
2016-May-25 08:30N 47°40' W 122°13'0 0.0
2016-May-25 07:31N 47°40' W 122°13'0 0.0
2016-May-25 06:32N 47°40' W 122°13'0 0.0
2016-May-25 05:29N 47°40' W 122°13'0 0.0
2016-May-25 04:33N 47°40' W 122°13'0 0.0
2016-May-25 03:28N 47°40' W 122°13'0 0.0
2016-May-25 02:28N 47°40' W 122°13'0 0.0
2016-May-25 01:32N 47°40' W 122°13'0 0.0
2016-May-25 00:30N 47°40' W 122°13'0 0.0
2016-May-24 23:30N 47°40' W 122°13'0 0.0
2016-May-24 22:28N 47°40' W 122°13'0 0.0
2016-May-24 21:32N 47°40' W 122°13'0 0.0
2016-May-24 20:26N 47°40' W 122°13'0 0.0
2016-May-24 19:33N 47°40' W 122°13'0 0.0
2016-May-24 18:28N 47°40' W 122°13'0 0.0
2016-May-24 17:31N 47°40' W 122°13'0 0.0
2016-May-24 16:29N 47°40' W 122°13'0 0.0
2016-May-24 15:27N 47°40' W 122°13'0 0.0
2016-May-24 14:33N 47°40' W 122°13'0 0.0
2016-May-24 01:33N 47°40' W 122°13'0 0.0
2016-May-24 00:31N 47°40' W 122°13'0 0.0
2016-May-23 23:31N 47°40' W 122°13'0 0.0
2016-May-23 22:32N 47°40' W 122°13'0 0.0
2016-May-23 21:33N 47°40' W 122°13'0 0.0
2016-May-23 20:33N 47°40' W 122°13'4 3.9
2016-May-23 19:33N 47°37' W 122°15'4 3.8
2016-May-23 18:31N 47°40' W 122°13'0 0.0
2016-May-23 17:26N 47°40' W 122°13'0 0.0
2016-May-23 16:32N 47°40' W 122°13'0 0.0
2016-May-23 15:33N 47°40' W 122°13'0 0.0
2016-May-23 14:31N 47°40' W 122°13'0 0.0
2016-May-23 13:19N 47°40' W 122°13'0 0.0
2016-May-23 12:32N 47°40' W 122°13'0 0.0
2016-May-23 11:33N 47°40' W 122°13'0 0.0
2016-May-23 10:33N 47°40' W 122°13'0 0.0
2016-May-23 09:28N 47°40' W 122°13'0 0.0
2016-May-23 08:32N 47°40' W 122°13'0 0.0
2016-May-23 07:32N 47°40' W 122°13'0 0.0
2016-May-23 06:33N 47°40' W 122°13'0 0.0
2016-May-23 05:28N 47°40' W 122°13'0 0.0
2016-May-23 04:28N 47°40' W 122°13'0 0.0
2016-May-23 03:32N 47°40' W 122°13'0 0.0
2016-May-23 02:30N 47°40' W 122°13'0 0.0
2016-May-23 01:33N 47°40' W 122°13'0 0.0
2016-May-23 00:31N 47°40' W 122°13'0 0.0
2016-May-22 23:32N 47°40' W 122°13'0 0.0
2016-May-22 22:32N 47°40' W 122°13'4 4.0
2016-May-22 21:32N 47°36' W 122°14'4 3.9
2016-May-22 20:30N 47°40' W 122°13'4 3.5
2016-May-22 19:26N 47°37' W 122°13'4 4.1
2016-May-22 18:32N 47°40' W 122°13'0 0.0
2016-May-22 17:32N 47°40' W 122°13'0 0.0
2016-May-22 16:33N 47°40' W 122°13'0 0.0
2016-May-22 15:34N 47°40' W 122°13'0 0.0
2016-May-22 13:32N 47°40' W 122°13'0 0.0
2016-May-22 12:33N 47°40' W 122°13'0 0.0
2016-May-22 11:33N 47°40' W 122°13'0 0.0
2016-May-22 10:31N 47°40' W 122°13'0 0.0
2016-May-22 09:29N 47°40' W 122°13'0 0.0
2016-May-22 08:32N 47°40' W 122°13'0 0.0
2016-May-22 07:30N 47°40' W 122°13'0 0.0
2016-May-22 06:31N 47°40' W 122°13'0 0.0
2016-May-22 05:28N 47°40' W 122°13'0 0.0
2016-May-22 04:32N 47°40' W 122°13'0 0.0
2016-May-22 03:30N 47°40' W 122°13'0 0.0
2016-May-22 02:30N 47°40' W 122°13'0 0.0
2016-May-22 01:31N 47°40' W 122°13'0 0.0
2016-May-22 00:23N 47°40' W 122°13'0 0.0
2016-May-21 23:34N 47°40' W 122°13'0 0.0
2016-May-21 22:34N 47°40' W 122°13'4 4.2
2016-May-21 21:33N 47°36' W 122°14'4 4.2
2016-May-21 20:33N 47°40' W 122°13'3 3.2
2016-May-21 19:34N 47°38' W 122°15'3 3.2
2016-May-21 18:34N 47°40' W 122°13'0 0.0
2016-May-21 17:31N 47°40' W 122°13'0 0.0
2016-May-21 16:31N 47°40' W 122°13'0 0.0
2016-May-21 15:32N 47°40' W 122°13'0 0.0
2016-May-21 14:33N 47°40' W 122°13'0 0.0
2016-May-21 13:33N 47°40' W 122°13'0 0.0
2016-May-21 12:31N 47°40' W 122°13'0 0.0
2016-May-21 11:32N 47°40' W 122°13'0 0.0
2016-May-21 10:32N 47°40' W 122°13'0 0.0
2016-May-21 09:33N 47°40' W 122°13'0 0.0
2016-May-21 08:31N 47°40' W 122°13'0 0.0
2016-May-21 07:31N 47°40' W 122°13'0 0.0
2016-May-21 06:32N 47°40' W 122°13'0 0.0
2016-May-21 05:33N 47°40' W 122°13'0 0.0
2016-May-21 04:30N 47°40' W 122°13'0 0.0
2016-May-21 03:31N 47°40' W 122°13'0 0.0
2016-May-21 02:26N 47°40' W 122°13'0 0.0
2016-May-21 01:32N 47°40' W 122°13'0 0.0
2016-May-21 00:24N 47°40' W 122°13'0 0.0
2016-May-20 23:28N 47°40' W 122°13'0 0.0
2016-May-20 22:28N 47°40' W 122°13'0 0.0
2016-May-20 21:29N 47°40' W 122°13'0 0.0
2016-May-20 20:30N 47°40' W 122°13'4 4.0
2016-May-20 19:33N 47°37' W 122°15'4 3.6
2016-May-20 18:32N 47°40' W 122°13'0 0.0
2016-May-20 17:33N 47°40' W 122°13'0 0.0
2016-May-20 16:28N 47°40' W 122°13'0 0.0
2016-May-20 15:31N 47°40' W 122°13'0 0.0
2016-May-20 14:32N 47°40' W 122°13'0 0.0
2016-May-20 13:33N 47°40' W 122°13'0 0.0
2016-May-20 12:30N 47°40' W 122°13'0 0.0
2016-May-20 11:25N 47°40' W 122°13'0 0.0
2016-May-20 10:32N 47°40' W 122°13'0 0.0
2016-May-20 09:32N 47°40' W 122°13'0 0.0
2016-May-20 08:33N 47°40' W 122°13'0 0.0
2016-May-20 07:31N 47°40' W 122°13'0 0.0
2016-May-20 06:31N 47°40' W 122°13'0 0.0
2016-May-20 04:33N 47°40' W 122°13'0 0.0
2016-May-20 03:33N 47°40' W 122°13'0 0.0
2016-May-20 02:28N 47°40' W 122°13'3 3.8
2016-May-20 01:33N 47°39' W 122°17'5 4.7
2016-May-20 00:33N 47°40' W 122°24'4 4.2
2016-May-19 23:32N 47°36' W 122°20'0 0.0
2016-May-18 19:19N 47°36' W 122°20'0 0.0
2016-May-18 18:33N 47°36' W 122°20'0 0.0
2016-May-18 17:34N 47°36' W 122°20'0 0.0
2016-May-18 16:33N 47°36' W 122°20'0 0.0
2016-May-18 15:33N 47°36' W 122°20'0 0.0
2016-May-18 14:33N 47°36' W 122°20'0 0.0
2016-May-18 13:34N 47°36' W 122°20'0 0.0
2016-May-18 12:33N 47°36' W 122°20'0 0.0
2016-May-18 11:34N 47°36' W 122°20'0 0.0
2016-May-18 10:33N 47°36' W 122°20'0 0.0
2016-May-18 09:34N 47°36' W 122°20'0 0.0
2016-May-18 08:33N 47°36' W 122°20'0 0.0
2016-May-18 07:33N 47°36' W 122°20'0 0.0
2016-May-18 06:33N 47°36' W 122°20'0 0.0
2016-May-18 05:34N 47°36' W 122°20'0 0.0
2016-May-18 04:33N 47°36' W 122°20'0 0.0
2016-May-18 03:34N 47°36' W 122°20'0 0.0
2016-May-18 02:31N 47°36' W 122°20'0 0.0
2016-May-18 01:34N 47°36' W 122°20'0 0.0
2016-May-18 00:34N 47°36' W 122°20'0 0.0
2016-May-17 23:33N 47°36' W 122°20'0 0.0
2016-May-17 22:33N 47°36' W 122°20'0 0.0
2016-May-17 21:34N 47°36' W 122°20'0 0.0
2016-May-17 20:33N 47°36' W 122°20'0 0.0
2016-May-17 19:33N 47°36' W 122°20'0 0.0
2016-May-17 18:33N 47°36' W 122°20'0 0.0
2016-May-17 17:34N 47°36' W 122°20'0 0.0
2016-May-17 16:34N 47°36' W 122°20'0 0.0
2016-May-17 15:33N 47°36' W 122°20'0 0.0
2016-May-17 14:33N 47°36' W 122°20'0 0.0
2016-May-17 13:33N 47°36' W 122°20'0 0.0
2016-May-17 12:34N 47°36' W 122°20'0 0.0
2016-May-17 11:33N 47°36' W 122°20'0 0.0
2016-May-17 10:34N 47°36' W 122°20'0 0.0
2016-May-17 09:33N 47°36' W 122°20'0 0.0
2016-May-17 08:33N 47°36' W 122°20'0 0.0
2016-May-17 07:33N 47°36' W 122°20'0 0.0
2016-May-17 06:34N 47°36' W 122°20'0 0.0
2016-May-17 05:34N 47°36' W 122°20'0 0.0
2016-May-17 04:33N 47°36' W 122°20'0 0.0
2016-May-17 03:33N 47°36' W 122°20'0 0.0
2016-May-17 02:33N 47°36' W 122°20'0 0.0
2016-May-17 01:33N 47°36' W 122°20'0 0.0
2016-May-17 00:34N 47°36' W 122°20'0 0.0
2016-May-16 23:34N 47°36' W 122°20'0 0.0
2016-May-16 22:33N 47°36' W 122°20'0 0.0
2016-May-16 21:34N 47°36' W 122°20'0 0.0
2016-May-16 20:33N 47°36' W 122°20'0 0.0
2016-May-16 19:33N 47°36' W 122°20'0 0.0
2016-May-16 18:33N 47°36' W 122°20'0 0.0
2016-May-16 17:33N 47°36' W 122°20'0 0.0
2016-May-16 16:33N 47°36' W 122°20'0 0.0
2016-May-16 15:34N 47°36' W 122°20'0 0.0
2016-May-16 14:33N 47°36' W 122°20'0 0.0
2016-May-16 13:33N 47°36' W 122°20'0 0.0
2016-May-16 12:34N 47°36' W 122°20'0 0.0
2016-May-16 11:33N 47°36' W 122°20'0 0.0
2016-May-16 10:33N 47°36' W 122°20'0 0.0
2016-May-16 09:33N 47°36' W 122°20'0 0.0
2016-May-16 08:33N 47°36' W 122°20'0 0.0
2016-May-16 07:34N 47°36' W 122°20'0 0.0
2016-May-16 06:34N 47°36' W 122°20'0 0.0
2016-May-16 05:34N 47°36' W 122°20'0 0.0
2016-May-16 04:34N 47°36' W 122°20'0 0.0
2016-May-16 03:33N 47°36' W 122°20'0 0.0
2016-May-16 02:33N 47°36' W 122°20'0 0.0
2016-May-16 01:33N 47°36' W 122°20'0 0.0
2016-May-16 00:33N 47°36' W 122°20'0 0.0
2016-May-15 23:33N 47°36' W 122°20'0 0.0
2016-May-15 22:33N 47°36' W 122°20'0 0.0
2016-May-15 21:32N 47°36' W 122°20'0 0.0
2016-May-15 20:34N 47°36' W 122°20'0 0.0
2016-May-15 19:33N 47°36' W 122°20'0 0.0
2016-May-15 18:33N 47°36' W 122°20'0 0.0
2016-May-15 17:33N 47°36' W 122°20'0 0.0
2016-May-15 16:33N 47°36' W 122°20'0 0.0
2016-May-15 15:33N 47°36' W 122°20'0 0.0
2016-May-15 14:33N 47°36' W 122°20'0 0.0
2016-May-15 13:33N 47°36' W 122°20'0 0.0
2016-May-15 12:33N 47°36' W 122°20'  

Dump ship's entire track history